sensor_id;sensor_type;location;lat;lon;timestamp;P1;durP1;ratioP1;P2;durP2;ratioP2
70727;SDS011;58314;47.722;17.652;2022-07-29T00:01:45;189.40;;;147.02;;
70727;SDS011;58314;47.722;17.652;2022-07-29T00:04:45;211.93;;;165.52;;
70727;SDS011;58314;47.722;17.652;2022-07-29T00:07:46;189.55;;;146.45;;
70727;SDS011;58314;47.722;17.652;2022-07-29T00:10:47;155.75;;;122.97;;
70727;SDS011;58314;47.722;17.652;2022-07-29T00:13:48;144.35;;;113.93;;
70727;SDS011;58314;47.722;17.652;2022-07-29T00:16:48;132.15;;;106.47;;
70727;SDS011;58314;47.722;17.652;2022-07-29T00:19:49;120.10;;;97.35;;
70727;SDS011;58314;47.722;17.652;2022-07-29T00:22:53;138.80;;;111.47;;
70727;SDS011;58314;47.722;17.652;2022-07-29T00:25:53;146.98;;;116.30;;
70727;SDS011;58314;47.722;17.652;2022-07-29T00:28:56;154.90;;;123.88;;
70727;SDS011;58314;47.722;17.652;2022-07-29T00:31:57;152.52;;;121.25;;
70727;SDS011;58314;47.722;17.652;2022-07-29T00:35:00;140.18;;;111.85;;
70727;SDS011;58314;47.722;17.652;2022-07-29T00:38:20;130.55;;;103.30;;
70727;SDS011;58314;47.722;17.652;2022-07-29T00:41:20;121.38;;;98.38;;
70727;SDS011;58314;47.722;17.652;2022-07-29T00:44:21;118.53;;;97.40;;
70727;SDS011;58314;47.722;17.652;2022-07-29T00:47:22;163.30;;;126.32;;
70727;SDS011;58314;47.722;17.652;2022-07-29T00:50:23;179.43;;;136.45;;
70727;SDS011;58314;47.722;17.652;2022-07-29T00:53:24;182.88;;;140.05;;
70727;SDS011;58314;47.722;17.652;2022-07-29T00:56:25;176.20;;;136.20;;
70727;SDS011;58314;47.722;17.652;2022-07-29T00:59:27;168.38;;;129.23;;
70727;SDS011;58314;47.722;17.652;2022-07-29T01:02:27;145.90;;;116.50;;
70727;SDS011;58314;47.722;17.652;2022-07-29T01:05:28;142.18;;;113.90;;
70727;SDS011;58314;47.722;17.652;2022-07-29T01:08:30;130.75;;;106.75;;
70727;SDS011;58314;47.722;17.652;2022-07-29T01:11:33;136.88;;;110.07;;
70727;SDS011;58314;47.722;17.652;2022-07-29T01:14:34;135.48;;;109.22;;
70727;SDS011;58314;47.722;17.652;2022-07-29T01:17:38;134.07;;;106.65;;
70727;SDS011;58314;47.722;17.652;2022-07-29T01:27:41;120.07;;;98.07;;
70727;SDS011;58314;47.722;17.652;2022-07-29T01:30:54;106.95;;;89.95;;
70727;SDS011;58314;47.722;17.652;2022-07-29T01:33:57;95.75;;;79.32;;
70727;SDS011;58314;47.722;17.652;2022-07-29T01:37:06;107.93;;;91.57;;
70727;SDS011;58314;47.722;17.652;2022-07-29T01:40:20;114.60;;;93.88;;
70727;SDS011;58314;47.722;17.652;2022-07-29T01:43:27;110.93;;;91.90;;
70727;SDS011;58314;47.722;17.652;2022-07-29T01:46:37;83.45;;;71.35;;
70727;SDS011;58314;47.722;17.652;2022-07-29T01:49:43;76.35;;;65.82;;
70727;SDS011;58314;47.722;17.652;2022-07-29T01:52:56;71.50;;;62.58;;
70727;SDS011;58314;47.722;17.652;2022-07-29T01:55:58;65.32;;;58.22;;
70727;SDS011;58314;47.722;17.652;2022-07-29T01:59:02;60.00;;;51.60;;
70727;SDS011;58314;47.722;17.652;2022-07-29T02:02:06;56.60;;;49.83;;
70727;SDS011;58314;47.722;17.652;2022-07-29T02:05:10;56.97;;;50.58;;
70727;SDS011;58314;47.722;17.652;2022-07-29T02:08:14;54.17;;;48.28;;
70727;SDS011;58314;47.722;17.652;2022-07-29T02:11:16;52.58;;;46.85;;
70727;SDS011;58314;47.722;17.652;2022-07-29T02:14:17;52.38;;;45.50;;
70727;SDS011;58314;47.722;17.652;2022-07-29T02:17:24;43.00;;;38.45;;
70727;SDS011;58314;47.722;17.652;2022-07-29T02:20:28;40.70;;;36.42;;
70727;SDS011;58314;47.722;17.652;2022-07-29T02:23:30;39.83;;;35.67;;
70727;SDS011;58314;47.722;17.652;2022-07-29T02:26:34;39.13;;;35.03;;
70727;SDS011;58314;47.722;17.652;2022-07-29T02:29:36;37.45;;;33.58;;
70727;SDS011;58314;47.722;17.652;2022-07-29T02:32:38;37.83;;;33.90;;
70727;SDS011;58314;47.722;17.652;2022-07-29T02:35:42;41.45;;;37.15;;
70727;SDS011;58314;47.722;17.652;2022-07-29T02:38:45;34.22;;;30.73;;
70727;SDS011;58314;47.722;17.652;2022-07-29T02:41:52;23.88;;;21.35;;
70727;SDS011;58314;47.722;17.652;2022-07-29T02:44:57;20.98;;;18.73;;
70727;SDS011;58314;47.722;17.652;2022-07-29T02:48:06;20.40;;;18.40;;
70727;SDS011;58314;47.722;17.652;2022-07-29T02:51:16;23.52;;;21.13;;
70727;SDS011;58314;47.722;17.652;2022-07-29T02:54:21;22.65;;;20.40;;
70727;SDS011;58314;47.722;17.652;2022-07-29T03:01:01;20.33;;;18.33;;
70727;SDS011;58314;47.722;17.652;2022-07-29T03:04:04;20.05;;;17.33;;
70727;SDS011;58314;47.722;17.652;2022-07-29T03:07:05;18.55;;;16.67;;
70727;SDS011;58314;47.722;17.652;2022-07-29T03:10:07;17.55;;;15.95;;
70727;SDS011;58314;47.722;17.652;2022-07-29T03:13:09;17.80;;;15.75;;
70727;SDS011;58314;47.722;17.652;2022-07-29T03:16:11;16.58;;;15.05;;
70727;SDS011;58314;47.722;17.652;2022-07-29T03:19:13;16.60;;;14.98;;
70727;SDS011;58314;47.722;17.652;2022-07-29T03:22:14;15.93;;;14.45;;
70727;SDS011;58314;47.722;17.652;2022-07-29T03:25:16;15.20;;;13.65;;
70727;SDS011;58314;47.722;17.652;2022-07-29T03:28:19;15.25;;;13.85;;
70727;SDS011;58314;47.722;17.652;2022-07-29T03:31:20;15.27;;;13.68;;
70727;SDS011;58314;47.722;17.652;2022-07-29T03:34:23;15.35;;;13.80;;
70727;SDS011;58314;47.722;17.652;2022-07-29T03:37:23;14.38;;;13.07;;
70727;SDS011;58314;47.722;17.652;2022-07-29T03:40:26;14.68;;;13.27;;
70727;SDS011;58314;47.722;17.652;2022-07-29T03:43:32;14.63;;;13.23;;
70727;SDS011;58314;47.722;17.652;2022-07-29T03:46:36;14.50;;;13.15;;
70727;SDS011;58314;47.722;17.652;2022-07-29T03:49:42;14.65;;;13.15;;
70727;SDS011;58314;47.722;17.652;2022-07-29T03:52:47;14.27;;;12.88;;
70727;SDS011;58314;47.722;17.652;2022-07-29T03:55:50;14.60;;;13.35;;
70727;SDS011;58314;47.722;17.652;2022-07-29T03:58:56;15.48;;;14.05;;
70727;SDS011;58314;47.722;17.652;2022-07-29T04:01:58;15.60;;;14.18;;
70727;SDS011;58314;47.722;17.652;2022-07-29T04:05:01;14.52;;;12.95;;
70727;SDS011;58314;47.722;17.652;2022-07-29T04:08:05;13.30;;;11.90;;
70727;SDS011;58314;47.722;17.652;2022-07-29T04:11:06;12.43;;;11.30;;
70727;SDS011;58314;47.722;17.652;2022-07-29T04:14:07;12.30;;;11.10;;
70727;SDS011;58314;47.722;17.652;2022-07-29T04:17:07;12.23;;;11.13;;
70727;SDS011;58314;47.722;17.652;2022-07-29T04:20:10;12.65;;;11.55;;
70727;SDS011;58314;47.722;17.652;2022-07-29T04:23:16;12.23;;;11.02;;
70727;SDS011;58314;47.722;17.652;2022-07-29T04:26:17;12.05;;;10.85;;
70727;SDS011;58314;47.722;17.652;2022-07-29T04:29:19;11.65;;;10.50;;
70727;SDS011;58314;47.722;17.652;2022-07-29T04:32:20;11.23;;;10.15;;
70727;SDS011;58314;47.722;17.652;2022-07-29T04:35:21;10.35;;;9.35;;
70727;SDS011;58314;47.722;17.652;2022-07-29T04:38:21;10.55;;;9.40;;
70727;SDS011;58314;47.722;17.652;2022-07-29T04:41:22;11.27;;;10.18;;
70727;SDS011;58314;47.722;17.652;2022-07-29T04:44:23;9.98;;;9.07;;
70727;SDS011;58314;47.722;17.652;2022-07-29T04:47:23;10.50;;;9.40;;
70727;SDS011;58314;47.722;17.652;2022-07-29T04:50:24;10.23;;;9.10;;
70727;SDS011;58314;47.722;17.652;2022-07-29T04:53:25;9.10;;;8.30;;
70727;SDS011;58314;47.722;17.652;2022-07-29T04:56:26;9.32;;;8.38;;
70727;SDS011;58314;47.722;17.652;2022-07-29T04:59:27;9.07;;;8.18;;
70727;SDS011;58314;47.722;17.652;2022-07-29T05:02:27;12.48;;;9.35;;
70727;SDS011;58314;47.722;17.652;2022-07-29T05:05:28;9.38;;;8.48;;
70727;SDS011;58314;47.722;17.652;2022-07-29T05:08:29;9.25;;;8.23;;
70727;SDS011;58314;47.722;17.652;2022-07-29T05:11:29;9.00;;;8.18;;
70727;SDS011;58314;47.722;17.652;2022-07-29T05:14:32;21.60;;;19.63;;
70727;SDS011;58314;47.722;17.652;2022-07-29T05:17:35;38.55;;;34.90;;
70727;SDS011;58314;47.722;17.652;2022-07-29T05:20:40;16.52;;;14.82;;
70727;SDS011;58314;47.722;17.652;2022-07-29T05:23:44;9.80;;;8.90;;
70727;SDS011;58314;47.722;17.652;2022-07-29T05:26:45;9.27;;;8.20;;
70727;SDS011;58314;47.722;17.652;2022-07-29T05:29:48;8.32;;;7.43;;
70727;SDS011;58314;47.722;17.652;2022-07-29T05:32:49;10.35;;;7.75;;
70727;SDS011;58314;47.722;17.652;2022-07-29T05:35:52;7.53;;;6.82;;
70727;SDS011;58314;47.722;17.652;2022-07-29T05:38:52;7.47;;;6.53;;
70727;SDS011;58314;47.722;17.652;2022-07-29T05:41:53;7.07;;;6.45;;
70727;SDS011;58314;47.722;17.652;2022-07-29T05:44:57;7.20;;;6.05;;
70727;SDS011;58314;47.722;17.652;2022-07-29T05:47:57;7.35;;;5.95;;
70727;SDS011;58314;47.722;17.652;2022-07-29T05:50:58;6.30;;;5.65;;
70727;SDS011;58314;47.722;17.652;2022-07-29T05:53:59;7.88;;;5.50;;
70727;SDS011;58314;47.722;17.652;2022-07-29T05:57:01;8.05;;;5.50;;
70727;SDS011;58314;47.722;17.652;2022-07-29T06:00:05;10.20;;;9.30;;
70727;SDS011;58314;47.722;17.652;2022-07-29T06:03:07;34.80;;;31.65;;
70727;SDS011;58314;47.722;17.652;2022-07-29T06:06:07;7.97;;;6.93;;
70727;SDS011;58314;47.722;17.652;2022-07-29T06:09:09;6.90;;;5.63;;
70727;SDS011;58314;47.722;17.652;2022-07-29T06:12:09;6.43;;;5.78;;
70727;SDS011;58314;47.722;17.652;2022-07-29T06:15:10;9.02;;;5.35;;
70727;SDS011;58314;47.722;17.652;2022-07-29T06:18:12;5.45;;;4.90;;
70727;SDS011;58314;47.722;17.652;2022-07-29T06:21:13;6.47;;;5.10;;
70727;SDS011;58314;47.722;17.652;2022-07-29T06:24:14;6.60;;;5.43;;
70727;SDS011;58314;47.722;17.652;2022-07-29T06:27:15;5.75;;;5.20;;
70727;SDS011;58314;47.722;17.652;2022-07-29T06:30:16;6.85;;;5.47;;
70727;SDS011;58314;47.722;17.652;2022-07-29T06:33:22;5.32;;;4.82;;
70727;SDS011;58314;47.722;17.652;2022-07-29T06:36:23;19.63;;;16.83;;
70727;SDS011;58314;47.722;17.652;2022-07-29T06:39:23;13.10;;;11.82;;
70727;SDS011;58314;47.722;17.652;2022-07-29T06:42:26;7.13;;;5.50;;
70727;SDS011;58314;47.722;17.652;2022-07-29T06:45:26;8.27;;;5.50;;
70727;SDS011;58314;47.722;17.652;2022-07-29T06:48:27;6.78;;;5.22;;
70727;SDS011;58314;47.722;17.652;2022-07-29T06:51:29;6.78;;;5.85;;
70727;SDS011;58314;47.722;17.652;2022-07-29T06:54:29;7.22;;;5.82;;
70727;SDS011;58314;47.722;17.652;2022-07-29T06:57:30;9.95;;;5.75;;
70727;SDS011;58314;47.722;17.652;2022-07-29T07:00:31;7.25;;;5.70;;
70727;SDS011;58314;47.722;17.652;2022-07-29T07:03:32;9.65;;;5.60;;
70727;SDS011;58314;47.722;17.652;2022-07-29T07:06:34;6.00;;;5.40;;
70727;SDS011;58314;47.722;17.652;2022-07-29T07:09:35;9.32;;;5.78;;
70727;SDS011;58314;47.722;17.652;2022-07-29T07:12:39;6.07;;;5.47;;
70727;SDS011;58314;47.722;17.652;2022-07-29T07:15:40;5.93;;;5.40;;
70727;SDS011;58314;47.722;17.652;2022-07-29T07:18:41;6.63;;;5.60;;
70727;SDS011;58314;47.722;17.652;2022-07-29T07:21:41;10.43;;;7.88;;
70727;SDS011;58314;47.722;17.652;2022-07-29T07:24:42;8.18;;;5.78;;
70727;SDS011;58314;47.722;17.652;2022-07-29T07:27:43;6.78;;;5.20;;
70727;SDS011;58314;47.722;17.652;2022-07-29T07:30:44;9.52;;;5.30;;
70727;SDS011;58314;47.722;17.652;2022-07-29T07:33:45;5.90;;;5.30;;
70727;SDS011;58314;47.722;17.652;2022-07-29T07:36:48;6.40;;;5.40;;
70727;SDS011;58314;47.722;17.652;2022-07-29T07:39:50;6.00;;;5.45;;
70727;SDS011;58314;47.722;17.652;2022-07-29T07:42:51;6.03;;;5.40;;
70727;SDS011;58314;47.722;17.652;2022-07-29T07:45:57;5.60;;;4.97;;
70727;SDS011;58314;47.722;17.652;2022-07-29T07:48:59;5.95;;;5.25;;
70727;SDS011;58314;47.722;17.652;2022-07-29T07:52:00;5.85;;;5.22;;
70727;SDS011;58314;47.722;17.652;2022-07-29T07:55:01;6.57;;;5.45;;
70727;SDS011;58314;47.722;17.652;2022-07-29T07:58:01;7.30;;;5.65;;
70727;SDS011;58314;47.722;17.652;2022-07-29T08:01:02;9.43;;;7.65;;
70727;SDS011;58314;47.722;17.652;2022-07-29T08:04:03;6.65;;;5.10;;
70727;SDS011;58314;47.722;17.652;2022-07-29T08:07:04;5.20;;;4.70;;
70727;SDS011;58314;47.722;17.652;2022-07-29T08:10:22;6.65;;;5.07;;
70727;SDS011;58314;47.722;17.652;2022-07-29T08:13:45;5.35;;;4.85;;
70727;SDS011;58314;47.722;17.652;2022-07-29T08:16:47;5.05;;;4.55;;
70727;SDS011;58314;47.722;17.652;2022-07-29T08:19:51;6.38;;;4.45;;
70727;SDS011;58314;47.722;17.652;2022-07-29T08:22:58;4.70;;;4.30;;
70727;SDS011;58314;47.722;17.652;2022-07-29T08:25:59;5.20;;;4.22;;
70727;SDS011;58314;47.722;17.652;2022-07-29T08:29:03;5.05;;;4.53;;
70727;SDS011;58314;47.722;17.652;2022-07-29T08:32:07;5.70;;;4.70;;
70727;SDS011;58314;47.722;17.652;2022-07-29T08:35:10;6.30;;;4.20;;
70727;SDS011;58314;47.722;17.652;2022-07-29T08:38:11;6.75;;;4.10;;
70727;SDS011;58314;47.722;17.652;2022-07-29T08:41:14;4.25;;;3.85;;
70727;SDS011;58314;47.722;17.652;2022-07-29T08:44:15;6.70;;;4.35;;
70727;SDS011;58314;47.722;17.652;2022-07-29T08:47:23;6.38;;;4.00;;
70727;SDS011;58314;47.722;17.652;2022-07-29T08:50:41;6.15;;;4.55;;
70727;SDS011;58314;47.722;17.652;2022-07-29T08:57:55;4.93;;;4.05;;
70727;SDS011;58314;47.722;17.652;2022-07-29T09:00:56;6.03;;;4.55;;
70727;SDS011;58314;47.722;17.652;2022-07-29T09:03:57;6.22;;;4.00;;
70727;SDS011;58314;47.722;17.652;2022-07-29T09:07:19;5.35;;;4.00;;
70727;SDS011;58314;47.722;17.652;2022-07-29T09:10:26;5.13;;;4.03;;
70727;SDS011;58314;47.722;17.652;2022-07-29T09:13:42;5.70;;;4.13;;
70727;SDS011;58314;47.722;17.652;2022-07-29T09:16:55;6.15;;;3.88;;
70727;SDS011;58314;47.722;17.652;2022-07-29T09:19:58;4.35;;;3.95;;
70727;SDS011;58314;47.722;17.652;2022-07-29T09:23:09;5.35;;;3.80;;
70727;SDS011;58314;47.722;17.652;2022-07-29T09:26:13;4.30;;;3.47;;
70727;SDS011;58314;47.722;17.652;2022-07-29T09:29:16;4.15;;;3.53;;
70727;SDS011;58314;47.722;17.652;2022-07-29T09:32:18;5.25;;;3.60;;
70727;SDS011;58314;47.722;17.652;2022-07-29T09:35:20;4.80;;;3.30;;
70727;SDS011;58314;47.722;17.652;2022-07-29T09:38:23;4.45;;;3.20;;
70727;SDS011;58314;47.722;17.652;2022-07-29T09:41:23;4.55;;;3.58;;
70727;SDS011;58314;47.722;17.652;2022-07-29T09:44:24;5.03;;;3.63;;
70727;SDS011;58314;47.722;17.652;2022-07-29T09:47:39;4.22;;;3.40;;
70727;SDS011;58314;47.722;17.652;2022-07-29T09:50:45;6.13;;;3.60;;
70727;SDS011;58314;47.722;17.652;2022-07-29T09:53:48;3.60;;;3.20;;
70727;SDS011;58314;47.722;17.652;2022-07-29T09:56:50;5.05;;;3.20;;
70727;SDS011;58314;47.722;17.652;2022-07-29T09:59:59;6.30;;;5.47;;
70727;SDS011;58314;47.722;17.652;2022-07-29T10:03:01;5.22;;;3.33;;
70727;SDS011;58314;47.722;17.652;2022-07-29T10:09:10;4.00;;;2.83;;
70727;SDS011;58314;47.722;17.652;2022-07-29T10:12:12;5.40;;;2.95;;
70727;SDS011;58314;47.722;17.652;2022-07-29T10:15:16;3.60;;;2.60;;
70727;SDS011;58314;47.722;17.652;2022-07-29T10:18:17;5.13;;;2.97;;
70727;SDS011;58314;47.722;17.652;2022-07-29T10:21:20;4.38;;;2.60;;
70727;SDS011;58314;47.722;17.652;2022-07-29T10:24:21;4.20;;;2.72;;
70727;SDS011;58314;47.722;17.652;2022-07-29T10:27:22;2.92;;;2.45;;
70727;SDS011;58314;47.722;17.652;2022-07-29T10:30:24;3.05;;;2.30;;
70727;SDS011;58314;47.722;17.652;2022-07-29T10:33:39;3.22;;;2.20;;
70727;SDS011;58314;47.722;17.652;2022-07-29T10:43:46;4.78;;;2.67;;
70727;SDS011;58314;47.722;17.652;2022-07-29T10:46:48;2.90;;;2.50;;
70727;SDS011;58314;47.722;17.652;2022-07-29T10:50:00;3.05;;;2.60;;
70727;SDS011;58314;47.722;17.652;2022-07-29T10:53:03;3.70;;;2.40;;
70727;SDS011;58314;47.722;17.652;2022-07-29T10:56:04;3.85;;;2.53;;
70727;SDS011;58314;47.722;17.652;2022-07-29T11:09:14;4.13;;;2.80;;
70727;SDS011;58314;47.722;17.652;2022-07-29T11:15:55;3.55;;;2.35;;
70727;SDS011;58314;47.722;17.652;2022-07-29T11:22:30;4.43;;;2.47;;
70727;SDS011;58314;47.722;17.652;2022-07-29T11:25:32;3.92;;;2.35;;
70727;SDS011;58314;47.722;17.652;2022-07-29T11:28:33;4.55;;;2.45;;
70727;SDS011;58314;47.722;17.652;2022-07-29T11:34:41;3.57;;;2.10;;
70727;SDS011;58314;47.722;17.652;2022-07-29T11:37:43;4.10;;;2.28;;
70727;SDS011;58314;47.722;17.652;2022-07-29T11:41:07;3.60;;;2.13;;
70727;SDS011;58314;47.722;17.652;2022-07-29T11:44:16;3.42;;;2.03;;
70727;SDS011;58314;47.722;17.652;2022-07-29T11:47:19;2.35;;;2.08;;
70727;SDS011;58314;47.722;17.652;2022-07-29T11:50:28;4.88;;;2.28;;
70727;SDS011;58314;47.722;17.652;2022-07-29T11:53:30;2.72;;;1.92;;
70727;SDS011;58314;47.722;17.652;2022-07-29T11:56:31;3.92;;;2.33;;
70727;SDS011;58314;47.722;17.652;2022-07-29T11:59:37;4.10;;;2.35;;
70727;SDS011;58314;47.722;17.652;2022-07-29T12:02:43;4.57;;;2.30;;
70727;SDS011;58314;47.722;17.652;2022-07-29T12:08:45;4.07;;;1.90;;
70727;SDS011;58314;47.722;17.652;2022-07-29T12:11:46;5.25;;;2.10;;
70727;SDS011;58314;47.722;17.652;2022-07-29T12:14:47;4.55;;;2.05;;
70727;SDS011;58314;47.722;17.652;2022-07-29T12:17:48;4.45;;;1.80;;
70727;SDS011;58314;47.722;17.652;2022-07-29T12:20:56;4.63;;;2.97;;
70727;SDS011;58314;47.722;17.652;2022-07-29T12:23:58;4.13;;;2.95;;
70727;SDS011;58314;47.722;17.652;2022-07-29T12:26:59;4.07;;;2.15;;
70727;SDS011;58314;47.722;17.652;2022-07-29T12:30:01;2.83;;;1.70;;
70727;SDS011;58314;47.722;17.652;2022-07-29T12:36:12;2.97;;;1.80;;
70727;SDS011;58314;47.722;17.652;2022-07-29T12:39:15;3.30;;;1.70;;
70727;SDS011;58314;47.722;17.652;2022-07-29T12:42:17;3.72;;;2.50;;
70727;SDS011;58314;47.722;17.652;2022-07-29T12:45:27;3.70;;;2.30;;
70727;SDS011;58314;47.722;17.652;2022-07-29T12:48:35;2.45;;;1.67;;
70727;SDS011;58314;47.722;17.652;2022-07-29T12:51:38;3.60;;;1.60;;
70727;SDS011;58314;47.722;17.652;2022-07-29T12:54:46;2.53;;;1.53;;
70727;SDS011;58314;47.722;17.652;2022-07-29T12:57:48;3.33;;;2.00;;
70727;SDS011;58314;47.722;17.652;2022-07-29T13:01:00;4.07;;;1.70;;
70727;SDS011;58314;47.722;17.652;2022-07-29T13:04:01;3.17;;;1.88;;
70727;SDS011;58314;47.722;17.652;2022-07-29T13:07:03;5.57;;;1.80;;
70727;SDS011;58314;47.722;17.652;2022-07-29T13:13:11;4.90;;;3.78;;
70727;SDS011;58314;47.722;17.652;2022-07-29T13:16:13;2.90;;;2.53;;
70727;SDS011;58314;47.722;17.652;2022-07-29T13:19:14;3.25;;;1.92;;
70727;SDS011;58314;47.722;17.652;2022-07-29T13:22:22;3.38;;;2.08;;
70727;SDS011;58314;47.722;17.652;2022-07-29T13:25:25;5.38;;;2.00;;
70727;SDS011;58314;47.722;17.652;2022-07-29T13:28:27;4.25;;;2.00;;
70727;SDS011;58314;47.722;17.652;2022-07-29T13:31:28;4.32;;;2.10;;
70727;SDS011;58314;47.722;17.652;2022-07-29T13:34:29;6.55;;;5.13;;
70727;SDS011;58314;47.722;17.652;2022-07-29T13:37:30;3.28;;;2.20;;
70727;SDS011;58314;47.722;17.652;2022-07-29T13:40:33;2.90;;;2.00;;
70727;SDS011;58314;47.722;17.652;2022-07-29T13:43:35;3.97;;;1.77;;
70727;SDS011;58314;47.722;17.652;2022-07-29T13:46:36;3.65;;;1.75;;
70727;SDS011;58314;47.722;17.652;2022-07-29T13:49:36;3.10;;;1.60;;
70727;SDS011;58314;47.722;17.652;2022-07-29T13:52:37;5.00;;;1.58;;
70727;SDS011;58314;47.722;17.652;2022-07-29T13:55:38;2.35;;;1.55;;
70727;SDS011;58314;47.722;17.652;2022-07-29T13:58:39;4.43;;;1.80;;
70727;SDS011;58314;47.722;17.652;2022-07-29T14:01:40;4.65;;;3.00;;
70727;SDS011;58314;47.722;17.652;2022-07-29T14:04:43;2.22;;;1.60;;
70727;SDS011;58314;47.722;17.652;2022-07-29T14:07:44;4.50;;;1.50;;
70727;SDS011;58314;47.722;17.652;2022-07-29T14:10:44;4.65;;;1.60;;
70727;SDS011;58314;47.722;17.652;2022-07-29T14:13:45;4.50;;;1.65;;
70727;SDS011;58314;47.722;17.652;2022-07-29T14:16:46;4.03;;;1.60;;
70727;SDS011;58314;47.722;17.652;2022-07-29T14:19:47;3.83;;;1.60;;
70727;SDS011;58314;47.722;17.652;2022-07-29T14:22:48;4.95;;;1.90;;
70727;SDS011;58314;47.722;17.652;2022-07-29T14:25:48;4.07;;;1.95;;
70727;SDS011;58314;47.722;17.652;2022-07-29T14:28:49;2.65;;;1.80;;
70727;SDS011;58314;47.722;17.652;2022-07-29T14:31:50;4.65;;;2.00;;
70727;SDS011;58314;47.722;17.652;2022-07-29T14:34:51;5.70;;;2.20;;
70727;SDS011;58314;47.722;17.652;2022-07-29T14:37:51;3.95;;;2.17;;
70727;SDS011;58314;47.722;17.652;2022-07-29T14:40:52;2.80;;;2.17;;
70727;SDS011;58314;47.722;17.652;2022-07-29T14:43:52;5.65;;;2.20;;
70727;SDS011;58314;47.722;17.652;2022-07-29T14:46:53;4.30;;;2.33;;
70727;SDS011;58314;47.722;17.652;2022-07-29T14:49:54;5.57;;;2.45;;
70727;SDS011;58314;47.722;17.652;2022-07-29T14:52:54;4.90;;;2.47;;
70727;SDS011;58314;47.722;17.652;2022-07-29T14:55:55;3.97;;;2.35;;
70727;SDS011;58314;47.722;17.652;2022-07-29T14:58:56;6.25;;;2.30;;
70727;SDS011;58314;47.722;17.652;2022-07-29T15:01:57;4.60;;;2.80;;
70727;SDS011;58314;47.722;17.652;2022-07-29T15:04:58;7.38;;;2.60;;
70727;SDS011;58314;47.722;17.652;2022-07-29T15:07:59;3.85;;;2.63;;
70727;SDS011;58314;47.722;17.652;2022-07-29T15:10:59;3.33;;;2.35;;
70727;SDS011;58314;47.722;17.652;2022-07-29T15:14:01;3.30;;;2.55;;
70727;SDS011;58314;47.722;17.652;2022-07-29T15:17:01;3.40;;;2.60;;
70727;SDS011;58314;47.722;17.652;2022-07-29T15:20:02;4.88;;;2.30;;
70727;SDS011;58314;47.722;17.652;2022-07-29T15:23:04;5.40;;;2.67;;
70727;SDS011;58314;47.722;17.652;2022-07-29T15:26:05;4.07;;;2.42;;
70727;SDS011;58314;47.722;17.652;2022-07-29T15:29:05;4.88;;;2.63;;
70727;SDS011;58314;47.722;17.652;2022-07-29T15:32:06;5.20;;;2.30;;
70727;SDS011;58314;47.722;17.652;2022-07-29T15:35:07;6.00;;;2.83;;
70727;SDS011;58314;47.722;17.652;2022-07-29T15:38:07;7.40;;;2.65;;
70727;SDS011;58314;47.722;17.652;2022-07-29T15:41:08;8.93;;;2.70;;
70727;SDS011;58314;47.722;17.652;2022-07-29T15:44:09;6.18;;;2.90;;
70727;SDS011;58314;47.722;17.652;2022-07-29T15:47:09;5.20;;;2.70;;
70727;SDS011;58314;47.722;17.652;2022-07-29T15:50:10;9.45;;;2.70;;
70727;SDS011;58314;47.722;17.652;2022-07-29T15:53:15;4.40;;;2.60;;
70727;SDS011;58314;47.722;17.652;2022-07-29T15:56:15;10.43;;;2.90;;
70727;SDS011;58314;47.722;17.652;2022-07-29T15:59:17;7.03;;;2.70;;
70727;SDS011;58314;47.722;17.652;2022-07-29T16:02:17;5.00;;;2.80;;
70727;SDS011;58314;47.722;17.652;2022-07-29T16:05:18;5.35;;;3.05;;
70727;SDS011;58314;47.722;17.652;2022-07-29T16:08:19;4.72;;;2.70;;
70727;SDS011;58314;47.722;17.652;2022-07-29T16:11:19;6.28;;;2.88;;
70727;SDS011;58314;47.722;17.652;2022-07-29T16:14:20;9.07;;;3.33;;
70727;SDS011;58314;47.722;17.652;2022-07-29T16:17:21;8.57;;;2.70;;
70727;SDS011;58314;47.722;17.652;2022-07-29T16:20:22;8.10;;;3.00;;
70727;SDS011;58314;47.722;17.652;2022-07-29T16:23:22;4.18;;;2.40;;
70727;SDS011;58314;47.722;17.652;2022-07-29T16:26:24;3.63;;;2.60;;
70727;SDS011;58314;47.722;17.652;2022-07-29T16:29:24;10.98;;;3.00;;
70727;SDS011;58314;47.722;17.652;2022-07-29T16:32:25;9.52;;;3.30;;
70727;SDS011;58314;47.722;17.652;2022-07-29T16:35:26;8.88;;;3.13;;
70727;SDS011;58314;47.722;17.652;2022-07-29T16:38:29;7.53;;;3.42;;
70727;SDS011;58314;47.722;17.652;2022-07-29T16:41:30;5.97;;;3.20;;
70727;SDS011;58314;47.722;17.652;2022-07-29T16:44:31;4.95;;;3.05;;
70727;SDS011;58314;47.722;17.652;2022-07-29T16:47:33;4.38;;;3.10;;
70727;SDS011;58314;47.722;17.652;2022-07-29T16:50:34;5.93;;;3.13;;
70727;SDS011;58314;47.722;17.652;2022-07-29T16:53:34;6.35;;;3.30;;
70727;SDS011;58314;47.722;17.652;2022-07-29T16:56:35;5.93;;;3.10;;
70727;SDS011;58314;47.722;17.652;2022-07-29T16:59:36;7.68;;;3.90;;
70727;SDS011;58314;47.722;17.652;2022-07-29T17:02:38;5.90;;;3.22;;
70727;SDS011;58314;47.722;17.652;2022-07-29T17:05:38;6.30;;;3.08;;
70727;SDS011;58314;47.722;17.652;2022-07-29T17:08:39;4.78;;;3.20;;
70727;SDS011;58314;47.722;17.652;2022-07-29T17:11:41;6.85;;;3.00;;
70727;SDS011;58314;47.722;17.652;2022-07-29T17:14:42;8.57;;;3.38;;
70727;SDS011;58314;47.722;17.652;2022-07-29T17:17:43;5.90;;;5.30;;
70727;SDS011;58314;47.722;17.652;2022-07-29T17:20:45;13.93;;;12.65;;
70727;SDS011;58314;47.722;17.652;2022-07-29T17:23:46;6.68;;;4.60;;
70727;SDS011;58314;47.722;17.652;2022-07-29T17:26:47;6.40;;;3.88;;
70727;SDS011;58314;47.722;17.652;2022-07-29T17:29:48;5.00;;;3.20;;
70727;SDS011;58314;47.722;17.652;2022-07-29T17:32:48;5.82;;;3.90;;
70727;SDS011;58314;47.722;17.652;2022-07-29T17:35:49;8.45;;;7.65;;
70727;SDS011;58314;47.722;17.652;2022-07-29T17:39:08;6.57;;;3.70;;
70727;SDS011;58314;47.722;17.652;2022-07-29T17:42:12;5.55;;;3.75;;
70727;SDS011;58314;47.722;17.652;2022-07-29T17:45:16;9.77;;;3.70;;
70727;SDS011;58314;47.722;17.652;2022-07-29T17:48:17;7.22;;;3.47;;
70727;SDS011;58314;47.722;17.652;2022-07-29T17:51:19;7.75;;;3.40;;
70727;SDS011;58314;47.722;17.652;2022-07-29T17:54:19;4.88;;;3.30;;
70727;SDS011;58314;47.722;17.652;2022-07-29T17:57:20;4.35;;;3.22;;
70727;SDS011;58314;47.722;17.652;2022-07-29T18:00:21;8.52;;;3.78;;
70727;SDS011;58314;47.722;17.652;2022-07-29T18:03:23;6.03;;;3.35;;
70727;SDS011;58314;47.722;17.652;2022-07-29T18:06:25;5.15;;;3.40;;
70727;SDS011;58314;47.722;17.652;2022-07-29T18:09:25;5.15;;;3.20;;
70727;SDS011;58314;47.722;17.652;2022-07-29T18:12:26;5.63;;;3.15;;
70727;SDS011;58314;47.722;17.652;2022-07-29T18:15:27;6.32;;;3.25;;
70727;SDS011;58314;47.722;17.652;2022-07-29T18:18:28;5.78;;;3.35;;
70727;SDS011;58314;47.722;17.652;2022-07-29T18:21:28;7.03;;;3.22;;
70727;SDS011;58314;47.722;17.652;2022-07-29T18:24:29;5.20;;;3.53;;
70727;SDS011;58314;47.722;17.652;2022-07-29T18:27:30;8.23;;;3.85;;
70727;SDS011;58314;47.722;17.652;2022-07-29T18:30:31;5.20;;;3.53;;
70727;SDS011;58314;47.722;17.652;2022-07-29T18:33:33;8.00;;;4.30;;
70727;SDS011;58314;47.722;17.652;2022-07-29T18:36:34;4.72;;;3.30;;
70727;SDS011;58314;47.722;17.652;2022-07-29T18:39:34;7.38;;;3.40;;
70727;SDS011;58314;47.722;17.652;2022-07-29T18:42:36;3.60;;;3.17;;
70727;SDS011;58314;47.722;17.652;2022-07-29T18:45:39;5.30;;;3.30;;
70727;SDS011;58314;47.722;17.652;2022-07-29T18:48:40;9.63;;;4.13;;